sensor_id;sensor_type;location;lat;lon;timestamp;P1;durP1;ratioP1;P2;durP2;ratioP2
7719;SDS011;3902;49.474;8.616;2023-05-07T00:01:32;2.57;;;2.00;;
7719;SDS011;3902;49.474;8.616;2023-05-07T00:03:58;1.80;;;1.70;;
7719;SDS011;3902;49.474;8.616;2023-05-07T00:06:23;2.43;;;2.13;;
7719;SDS011;3902;49.474;8.616;2023-05-07T00:08:50;2.70;;;2.00;;
7719;SDS011;3902;49.474;8.616;2023-05-07T00:11:16;2.30;;;2.10;;
7719;SDS011;3902;49.474;8.616;2023-05-07T00:13:41;1.90;;;1.80;;
7719;SDS011;3902;49.474;8.616;2023-05-07T00:16:07;1.93;;;1.83;;
7719;SDS011;3902;49.474;8.616;2023-05-07T00:18:32;3.23;;;1.83;;
7719;SDS011;3902;49.474;8.616;2023-05-07T00:20:58;2.40;;;2.00;;
7719;SDS011;3902;49.474;8.616;2023-05-07T00:23:24;1.93;;;1.73;;
7719;SDS011;3902;49.474;8.616;2023-05-07T00:25:49;1.63;;;1.53;;
7719;SDS011;3902;49.474;8.616;2023-05-07T00:28:15;1.73;;;1.63;;
7719;SDS011;3902;49.474;8.616;2023-05-07T00:30:40;1.73;;;1.63;;
7719;SDS011;3902;49.474;8.616;2023-05-07T00:33:06;2.13;;;1.57;;
7719;SDS011;3902;49.474;8.616;2023-05-07T00:35:31;1.47;;;1.37;;
7719;SDS011;3902;49.474;8.616;2023-05-07T00:37:57;1.60;;;1.50;;
7719;SDS011;3902;49.474;8.616;2023-05-07T00:40:22;1.40;;;1.30;;
7719;SDS011;3902;49.474;8.616;2023-05-07T00:42:48;1.60;;;1.50;;
7719;SDS011;3902;49.474;8.616;2023-05-07T00:45:14;2.00;;;1.67;;
7719;SDS011;3902;49.474;8.616;2023-05-07T00:47:41;2.50;;;1.53;;
7719;SDS011;3902;49.474;8.616;2023-05-07T00:50:07;1.60;;;1.50;;
7719;SDS011;3902;49.474;8.616;2023-05-07T00:52:34;1.97;;;1.40;;
7719;SDS011;3902;49.474;8.616;2023-05-07T00:55:01;1.40;;;1.30;;
7719;SDS011;3902;49.474;8.616;2023-05-07T00:57:32;1.50;;;1.40;;
7719;SDS011;3902;49.474;8.616;2023-05-07T01:00:05;1.30;;;1.20;;
7719;SDS011;3902;49.474;8.616;2023-05-07T01:02:32;1.70;;;1.60;;
7719;SDS011;3902;49.474;8.616;2023-05-07T01:04:58;1.53;;;1.43;;
7719;SDS011;3902;49.474;8.616;2023-05-07T01:07:25;1.90;;;1.40;;
7719;SDS011;3902;49.474;8.616;2023-05-07T01:09:51;1.57;;;1.47;;
7719;SDS011;3902;49.474;8.616;2023-05-07T01:12:17;1.90;;;1.40;;
7719;SDS011;3902;49.474;8.616;2023-05-07T01:14:43;1.47;;;1.37;;
7719;SDS011;3902;49.474;8.616;2023-05-07T01:17:08;1.93;;;1.30;;
7719;SDS011;3902;49.474;8.616;2023-05-07T01:19:34;1.40;;;1.30;;
7719;SDS011;3902;49.474;8.616;2023-05-07T01:22:04;2.40;;;1.40;;
7719;SDS011;3902;49.474;8.616;2023-05-07T01:24:33;1.67;;;1.53;;
7719;SDS011;3902;49.474;8.616;2023-05-07T01:27:02;1.60;;;1.50;;
7719;SDS011;3902;49.474;8.616;2023-05-07T01:29:28;3.43;;;1.30;;
7719;SDS011;3902;49.474;8.616;2023-05-07T01:31:54;1.50;;;1.37;;
7719;SDS011;3902;49.474;8.616;2023-05-07T01:34:25;1.70;;;1.53;;
7719;SDS011;3902;49.474;8.616;2023-05-07T01:36:55;1.80;;;1.30;;
7719;SDS011;3902;49.474;8.616;2023-05-07T01:39:24;1.53;;;1.43;;
7719;SDS011;3902;49.474;8.616;2023-05-07T01:41:50;1.40;;;1.30;;
7719;SDS011;3902;49.474;8.616;2023-05-07T01:44:16;1.63;;;1.20;;
7719;SDS011;3902;49.474;8.616;2023-05-07T01:46:43;1.40;;;1.30;;
7719;SDS011;3902;49.474;8.616;2023-05-07T01:49:08;1.37;;;1.27;;
7719;SDS011;3902;49.474;8.616;2023-05-07T01:51:34;1.93;;;1.40;;
7719;SDS011;3902;49.474;8.616;2023-05-07T01:54:01;1.47;;;1.37;;
7719;SDS011;3902;49.474;8.616;2023-05-07T01:56:26;1.50;;;1.40;;
7719;SDS011;3902;49.474;8.616;2023-05-07T01:58:52;1.80;;;1.50;;
7719;SDS011;3902;49.474;8.616;2023-05-07T02:01:17;2.50;;;1.40;;
7719;SDS011;3902;49.474;8.616;2023-05-07T02:03:43;2.50;;;1.50;;
7719;SDS011;3902;49.474;8.616;2023-05-07T02:06:09;1.77;;;1.17;;
7719;SDS011;3902;49.474;8.616;2023-05-07T02:08:35;1.43;;;1.33;;
7719;SDS011;3902;49.474;8.616;2023-05-07T02:11:00;3.30;;;1.50;;
7719;SDS011;3902;49.474;8.616;2023-05-07T02:13:28;1.40;;;1.30;;
7719;SDS011;3902;49.474;8.616;2023-05-07T02:15:55;1.40;;;1.30;;
7719;SDS011;3902;49.474;8.616;2023-05-07T02:18:20;1.50;;;1.30;;
7719;SDS011;3902;49.474;8.616;2023-05-07T02:20:46;1.83;;;1.30;;
7719;SDS011;3902;49.474;8.616;2023-05-07T02:23:11;1.50;;;1.40;;
7719;SDS011;3902;49.474;8.616;2023-05-07T02:25:37;1.70;;;1.60;;
7719;SDS011;3902;49.474;8.616;2023-05-07T02:28:03;1.53;;;1.40;;
7719;SDS011;3902;49.474;8.616;2023-05-07T02:30:28;1.97;;;1.70;;
7719;SDS011;3902;49.474;8.616;2023-05-07T02:32:54;2.37;;;1.40;;
7719;SDS011;3902;49.474;8.616;2023-05-07T02:35:19;1.70;;;1.60;;
7719;SDS011;3902;49.474;8.616;2023-05-07T02:37:45;2.23;;;1.63;;
7719;SDS011;3902;49.474;8.616;2023-05-07T02:40:11;1.60;;;1.50;;
7719;SDS011;3902;49.474;8.616;2023-05-07T02:42:37;1.20;;;1.10;;
7719;SDS011;3902;49.474;8.616;2023-05-07T02:45:02;1.47;;;1.37;;
7719;SDS011;3902;49.474;8.616;2023-05-07T02:47:28;1.67;;;1.43;;
7719;SDS011;3902;49.474;8.616;2023-05-07T02:49:57;1.90;;;1.33;;
7719;SDS011;3902;49.474;8.616;2023-05-07T02:52:22;4.60;;;1.77;;
7719;SDS011;3902;49.474;8.616;2023-05-07T02:54:48;1.60;;;1.50;;
7719;SDS011;3902;49.474;8.616;2023-05-07T02:57:13;1.87;;;1.67;;
7719;SDS011;3902;49.474;8.616;2023-05-07T02:59:39;1.90;;;1.80;;
7719;SDS011;3902;49.474;8.616;2023-05-07T03:02:05;2.07;;;1.87;;
7719;SDS011;3902;49.474;8.616;2023-05-07T03:04:30;2.60;;;1.63;;
7719;SDS011;3902;49.474;8.616;2023-05-07T03:06:56;1.80;;;1.70;;
7719;SDS011;3902;49.474;8.616;2023-05-07T03:09:21;2.50;;;1.90;;
7719;SDS011;3902;49.474;8.616;2023-05-07T03:11:47;2.10;;;1.90;;
7719;SDS011;3902;49.474;8.616;2023-05-07T03:14:12;2.27;;;2.00;;
7719;SDS011;3902;49.474;8.616;2023-05-07T03:16:38;2.50;;;1.90;;
7719;SDS011;3902;49.474;8.616;2023-05-07T03:19:03;2.03;;;1.83;;
7719;SDS011;3902;49.474;8.616;2023-05-07T03:21:29;2.40;;;2.00;;
7719;SDS011;3902;49.474;8.616;2023-05-07T03:23:55;2.47;;;2.27;;
7719;SDS011;3902;49.474;8.616;2023-05-07T03:26:21;2.30;;;2.00;;
7719;SDS011;3902;49.474;8.616;2023-05-07T03:28:46;2.30;;;2.10;;
7719;SDS011;3902;49.474;8.616;2023-05-07T03:31:12;3.33;;;2.30;;
7719;SDS011;3902;49.474;8.616;2023-05-07T03:33:42;2.33;;;2.13;;
7719;SDS011;3902;49.474;8.616;2023-05-07T03:36:18;2.40;;;2.20;;
7719;SDS011;3902;49.474;8.616;2023-05-07T03:38:44;2.93;;;2.13;;
7719;SDS011;3902;49.474;8.616;2023-05-07T03:41:09;2.40;;;2.20;;
7719;SDS011;3902;49.474;8.616;2023-05-07T03:43:35;2.50;;;2.30;;
7719;SDS011;3902;49.474;8.616;2023-05-07T03:46:00;2.10;;;1.90;;
7719;SDS011;3902;49.474;8.616;2023-05-07T03:48:26;2.40;;;2.20;;
7719;SDS011;3902;49.474;8.616;2023-05-07T03:50:51;2.87;;;2.33;;
7719;SDS011;3902;49.474;8.616;2023-05-07T03:53:17;2.63;;;2.20;;
7719;SDS011;3902;49.474;8.616;2023-05-07T03:55:42;2.77;;;2.13;;
7719;SDS011;3902;49.474;8.616;2023-05-07T03:58:08;2.40;;;2.20;;
7719;SDS011;3902;49.474;8.616;2023-05-07T04:00:33;2.60;;;2.40;;
7719;SDS011;3902;49.474;8.616;2023-05-07T04:03:03;4.83;;;2.40;;
7719;SDS011;3902;49.474;8.616;2023-05-07T04:05:29;2.50;;;2.10;;
7719;SDS011;3902;49.474;8.616;2023-05-07T04:07:55;2.53;;;2.33;;
7719;SDS011;3902;49.474;8.616;2023-05-07T04:10:21;2.50;;;2.30;;
7719;SDS011;3902;49.474;8.616;2023-05-07T04:12:46;2.17;;;1.83;;
7719;SDS011;3902;49.474;8.616;2023-05-07T04:15:12;2.30;;;2.10;;
7719;SDS011;3902;49.474;8.616;2023-05-07T04:17:37;2.93;;;2.00;;
7719;SDS011;3902;49.474;8.616;2023-05-07T04:20:03;2.50;;;2.30;;
7719;SDS011;3902;49.474;8.616;2023-05-07T04:22:29;3.53;;;2.00;;
7719;SDS011;3902;49.474;8.616;2023-05-07T04:24:55;2.70;;;2.07;;
7719;SDS011;3902;49.474;8.616;2023-05-07T04:27:21;2.43;;;2.23;;
7719;SDS011;3902;49.474;8.616;2023-05-07T04:29:46;2.00;;;1.83;;
7719;SDS011;3902;49.474;8.616;2023-05-07T04:32:12;2.57;;;2.30;;
7719;SDS011;3902;49.474;8.616;2023-05-07T04:34:38;3.03;;;2.20;;
7719;SDS011;3902;49.474;8.616;2023-05-07T04:37:03;2.20;;;2.00;;
7719;SDS011;3902;49.474;8.616;2023-05-07T04:39:29;2.07;;;1.87;;
7719;SDS011;3902;49.474;8.616;2023-05-07T04:41:54;2.60;;;2.37;;
7719;SDS011;3902;49.474;8.616;2023-05-07T04:44:20;2.70;;;2.50;;
7719;SDS011;3902;49.474;8.616;2023-05-07T04:46:46;2.60;;;2.40;;
7719;SDS011;3902;49.474;8.616;2023-05-07T04:49:11;2.50;;;2.30;;
7719;SDS011;3902;49.474;8.616;2023-05-07T04:51:37;3.93;;;2.23;;
7719;SDS011;3902;49.474;8.616;2023-05-07T04:54:03;3.70;;;2.60;;
7719;SDS011;3902;49.474;8.616;2023-05-07T04:56:28;3.60;;;2.80;;
7719;SDS011;3902;49.474;8.616;2023-05-07T04:58:57;2.90;;;2.60;;
7719;SDS011;3902;49.474;8.616;2023-05-07T05:01:22;2.13;;;1.90;;
7719;SDS011;3902;49.474;8.616;2023-05-07T05:03:48;2.63;;;2.40;;
7719;SDS011;3902;49.474;8.616;2023-05-07T05:06:13;2.47;;;2.27;;
7719;SDS011;3902;49.474;8.616;2023-05-07T05:08:39;3.00;;;2.10;;
7719;SDS011;3902;49.474;8.616;2023-05-07T05:11:04;3.03;;;2.03;;
7719;SDS011;3902;49.474;8.616;2023-05-07T05:13:30;2.80;;;2.13;;
7719;SDS011;3902;49.474;8.616;2023-05-07T05:15:55;2.40;;;2.20;;
7719;SDS011;3902;49.474;8.616;2023-05-07T05:18:21;3.17;;;2.57;;
7719;SDS011;3902;49.474;8.616;2023-05-07T05:20:47;2.17;;;1.97;;
7719;SDS011;3902;49.474;8.616;2023-05-07T05:23:12;2.43;;;2.23;;
7719;SDS011;3902;49.474;8.616;2023-05-07T05:25:38;2.07;;;1.90;;
7719;SDS011;3902;49.474;8.616;2023-05-07T05:28:05;2.30;;;2.10;;
7719;SDS011;3902;49.474;8.616;2023-05-07T05:30:30;2.77;;;2.23;;
7719;SDS011;3902;49.474;8.616;2023-05-07T05:32:56;2.47;;;2.27;;
7719;SDS011;3902;49.474;8.616;2023-05-07T05:35:21;2.63;;;1.87;;
7719;SDS011;3902;49.474;8.616;2023-05-07T05:37:47;2.73;;;2.10;;
7719;SDS011;3902;49.474;8.616;2023-05-07T05:40:13;2.70;;;2.03;;
7719;SDS011;3902;49.474;8.616;2023-05-07T05:42:38;2.80;;;2.07;;
7719;SDS011;3902;49.474;8.616;2023-05-07T05:45:04;2.23;;;2.03;;
7719;SDS011;3902;49.474;8.616;2023-05-07T05:47:30;2.40;;;2.20;;
7719;SDS011;3902;49.474;8.616;2023-05-07T05:49:56;2.50;;;2.30;;
7719;SDS011;3902;49.474;8.616;2023-05-07T05:52:22;3.80;;;2.03;;
7719;SDS011;3902;49.474;8.616;2023-05-07T05:54:48;2.87;;;2.30;;
7719;SDS011;3902;49.474;8.616;2023-05-07T05:57:14;3.27;;;2.47;;
7719;SDS011;3902;49.474;8.616;2023-05-07T05:59:40;2.50;;;2.30;;
7719;SDS011;3902;49.474;8.616;2023-05-07T06:02:06;2.80;;;2.37;;
7719;SDS011;3902;49.474;8.616;2023-05-07T06:04:32;2.63;;;2.20;;
7719;SDS011;3902;49.474;8.616;2023-05-07T06:06:57;3.00;;;2.37;;
7719;SDS011;3902;49.474;8.616;2023-05-07T06:09:23;2.93;;;2.53;;
7719;SDS011;3902;49.474;8.616;2023-05-07T06:11:48;4.07;;;2.40;;
7719;SDS011;3902;49.474;8.616;2023-05-07T06:14:14;2.60;;;2.40;;
7719;SDS011;3902;49.474;8.616;2023-05-07T06:16:40;2.93;;;2.27;;
7719;SDS011;3902;49.474;8.616;2023-05-07T06:19:05;2.27;;;2.07;;
7719;SDS011;3902;49.474;8.616;2023-05-07T06:21:31;2.37;;;2.17;;
7719;SDS011;3902;49.474;8.616;2023-05-07T06:23:56;2.83;;;2.30;;
7719;SDS011;3902;49.474;8.616;2023-05-07T06:26:22;2.43;;;2.23;;
7719;SDS011;3902;49.474;8.616;2023-05-07T06:28:47;2.50;;;1.73;;
7719;SDS011;3902;49.474;8.616;2023-05-07T06:31:13;2.50;;;2.30;;
7719;SDS011;3902;49.474;8.616;2023-05-07T06:33:45;3.57;;;2.67;;
7719;SDS011;3902;49.474;8.616;2023-05-07T06:36:11;2.33;;;2.13;;
7719;SDS011;3902;49.474;8.616;2023-05-07T06:38:37;2.37;;;2.17;;
7719;SDS011;3902;49.474;8.616;2023-05-07T06:41:02;2.00;;;1.83;;
7719;SDS011;3902;49.474;8.616;2023-05-07T06:43:28;2.40;;;2.10;;
7719;SDS011;3902;49.474;8.616;2023-05-07T06:45:53;2.40;;;2.20;;
7719;SDS011;3902;49.474;8.616;2023-05-07T06:48:19;2.27;;;2.07;;
7719;SDS011;3902;49.474;8.616;2023-05-07T06:50:44;2.30;;;2.10;;
7719;SDS011;3902;49.474;8.616;2023-05-07T06:53:10;2.93;;;2.63;;
7719;SDS011;3902;49.474;8.616;2023-05-07T06:55:36;2.33;;;2.10;;
7719;SDS011;3902;49.474;8.616;2023-05-07T06:58:03;2.53;;;2.00;;
7719;SDS011;3902;49.474;8.616;2023-05-07T07:00:28;2.13;;;1.93;;
7719;SDS011;3902;49.474;8.616;2023-05-07T07:02:54;1.90;;;1.80;;
7719;SDS011;3902;49.474;8.616;2023-05-07T07:05:20;2.47;;;2.23;;
7719;SDS011;3902;49.474;8.616;2023-05-07T07:07:46;2.50;;;2.30;;
7719;SDS011;3902;49.474;8.616;2023-05-07T07:10:18;2.60;;;2.40;;
7719;SDS011;3902;49.474;8.616;2023-05-07T07:12:47;4.17;;;2.87;;
7719;SDS011;3902;49.474;8.616;2023-05-07T07:15:14;3.97;;;2.63;;
7719;SDS011;3902;49.474;8.616;2023-05-07T07:17:39;3.40;;;2.60;;
7719;SDS011;3902;49.474;8.616;2023-05-07T07:20:05;3.07;;;2.60;;
7719;SDS011;3902;49.474;8.616;2023-05-07T07:22:31;4.20;;;2.33;;
7719;SDS011;3902;49.474;8.616;2023-05-07T07:24:57;3.33;;;2.50;;
7719;SDS011;3902;49.474;8.616;2023-05-07T07:27:22;4.40;;;2.60;;
7719;SDS011;3902;49.474;8.616;2023-05-07T07:29:48;3.43;;;2.30;;
7719;SDS011;3902;49.474;8.616;2023-05-07T07:32:13;3.40;;;2.67;;
7719;SDS011;3902;49.474;8.616;2023-05-07T07:34:39;3.23;;;2.60;;
7719;SDS011;3902;49.474;8.616;2023-05-07T07:37:05;4.10;;;2.30;;
7719;SDS011;3902;49.474;8.616;2023-05-07T07:39:34;2.00;;;1.90;;
7719;SDS011;3902;49.474;8.616;2023-05-07T07:42:02;2.67;;;2.47;;
7719;SDS011;3902;49.474;8.616;2023-05-07T07:44:28;2.83;;;1.90;;
7719;SDS011;3902;49.474;8.616;2023-05-07T07:46:53;3.33;;;1.93;;
7719;SDS011;3902;49.474;8.616;2023-05-07T07:49:19;3.73;;;2.17;;
7719;SDS011;3902;49.474;8.616;2023-05-07T07:51:45;2.70;;;2.10;;
7719;SDS011;3902;49.474;8.616;2023-05-07T07:54:10;2.50;;;2.23;;
7719;SDS011;3902;49.474;8.616;2023-05-07T07:56:36;1.80;;;1.70;;
7719;SDS011;3902;49.474;8.616;2023-05-07T07:59:01;2.20;;;2.00;;
7719;SDS011;3902;49.474;8.616;2023-05-07T08:01:28;2.20;;;1.80;;
7719;SDS011;3902;49.474;8.616;2023-05-07T08:03:55;2.17;;;1.90;;
7719;SDS011;3902;49.474;8.616;2023-05-07T08:06:20;2.63;;;2.00;;
7719;SDS011;3902;49.474;8.616;2023-05-07T08:08:46;2.27;;;1.50;;
7719;SDS011;3902;49.474;8.616;2023-05-07T08:11:11;2.00;;;1.90;;
7719;SDS011;3902;49.474;8.616;2023-05-07T08:13:37;2.70;;;1.80;;
7719;SDS011;3902;49.474;8.616;2023-05-07T08:16:03;1.70;;;1.60;;
7719;SDS011;3902;49.474;8.616;2023-05-07T08:18:29;2.37;;;2.17;;
7719;SDS011;3902;49.474;8.616;2023-05-07T08:20:55;3.10;;;1.83;;
7719;SDS011;3902;49.474;8.616;2023-05-07T08:23:21;1.77;;;1.67;;
7719;SDS011;3902;49.474;8.616;2023-05-07T08:25:46;2.07;;;1.87;;
7719;SDS011;3902;49.474;8.616;2023-05-07T08:28:13;1.90;;;1.60;;
7719;SDS011;3902;49.474;8.616;2023-05-07T08:30:38;1.93;;;1.83;;
7719;SDS011;3902;49.474;8.616;2023-05-07T08:33:08;3.50;;;1.70;;
7719;SDS011;3902;49.474;8.616;2023-05-07T08:35:34;1.60;;;1.50;;
7719;SDS011;3902;49.474;8.616;2023-05-07T08:38:00;1.80;;;1.70;;
7719;SDS011;3902;49.474;8.616;2023-05-07T08:40:25;2.17;;;1.97;;
7719;SDS011;3902;49.474;8.616;2023-05-07T08:42:54;2.43;;;1.83;;
7719;SDS011;3902;49.474;8.616;2023-05-07T08:45:21;1.77;;;1.67;;
7719;SDS011;3902;49.474;8.616;2023-05-07T08:47:50;1.60;;;1.50;;
7719;SDS011;3902;49.474;8.616;2023-05-07T08:50:20;1.93;;;1.73;;
7719;SDS011;3902;49.474;8.616;2023-05-07T08:52:47;1.60;;;1.50;;
7719;SDS011;3902;49.474;8.616;2023-05-07T08:55:12;1.77;;;1.67;;
7719;SDS011;3902;49.474;8.616;2023-05-07T08:57:38;2.43;;;2.07;;
7719;SDS011;3902;49.474;8.616;2023-05-07T09:00:04;1.67;;;1.57;;
7719;SDS011;3902;49.474;8.616;2023-05-07T09:02:32;2.30;;;1.83;;
7719;SDS011;3902;49.474;8.616;2023-05-07T09:04:58;1.80;;;1.70;;
7719;SDS011;3902;49.474;8.616;2023-05-07T09:07:23;1.70;;;1.60;;
7719;SDS011;3902;49.474;8.616;2023-05-07T09:09:50;1.40;;;1.30;;
7719;SDS011;3902;49.474;8.616;2023-05-07T09:12:17;1.93;;;1.73;;
7719;SDS011;3902;49.474;8.616;2023-05-07T09:14:43;2.30;;;2.03;;
7719;SDS011;3902;49.474;8.616;2023-05-07T09:17:10;2.00;;;1.53;;
7719;SDS011;3902;49.474;8.616;2023-05-07T09:19:36;2.10;;;1.80;;
7719;SDS011;3902;49.474;8.616;2023-05-07T09:22:02;2.07;;;1.87;;
7719;SDS011;3902;49.474;8.616;2023-05-07T09:24:29;1.63;;;1.53;;
7719;SDS011;3902;49.474;8.616;2023-05-07T09:26:59;10.40;;;1.90;;
7719;SDS011;3902;49.474;8.616;2023-05-07T09:29:26;2.00;;;1.70;;
7719;SDS011;3902;49.474;8.616;2023-05-07T09:31:54;1.63;;;1.53;;
7719;SDS011;3902;49.474;8.616;2023-05-07T09:34:19;1.93;;;1.73;;
7719;SDS011;3902;49.474;8.616;2023-05-07T09:36:45;2.27;;;1.40;;
7719;SDS011;3902;49.474;8.616;2023-05-07T09:39:11;2.20;;;1.93;;
7719;SDS011;3902;49.474;8.616;2023-05-07T09:41:44;2.17;;;1.83;;
7719;SDS011;3902;49.474;8.616;2023-05-07T09:44:10;1.80;;;1.53;;
7719;SDS011;3902;49.474;8.616;2023-05-07T09:46:37;3.77;;;1.90;;
7719;SDS011;3902;49.474;8.616;2023-05-07T09:49:05;1.90;;;1.80;;
7719;SDS011;3902;49.474;8.616;2023-05-07T09:51:49;3.13;;;1.90;;
7719;SDS011;3902;49.474;8.616;2023-05-07T09:54:16;2.23;;;2.03;;
7719;SDS011;3902;49.474;8.616;2023-05-07T09:56:45;2.33;;;1.90;;
7719;SDS011;3902;49.474;8.616;2023-05-07T09:59:14;2.70;;;1.90;;
7719;SDS011;3902;49.474;8.616;2023-05-07T10:01:42;2.30;;;1.90;;
7719;SDS011;3902;49.474;8.616;2023-05-07T10:04:09;2.00;;;1.80;;
7719;SDS011;3902;49.474;8.616;2023-05-07T10:06:35;1.97;;;1.77;;
7719;SDS011;3902;49.474;8.616;2023-05-07T10:09:02;2.87;;;1.73;;
7719;SDS011;3902;49.474;8.616;2023-05-07T10:11:30;2.00;;;1.90;;
7719;SDS011;3902;49.474;8.616;2023-05-07T10:14:00;2.03;;;1.87;;
7719;SDS011;3902;49.474;8.616;2023-05-07T10:16:27;2.20;;;2.00;;
7719;SDS011;3902;49.474;8.616;2023-05-07T10:18:57;2.60;;;2.20;;
7719;SDS011;3902;49.474;8.616;2023-05-07T10:21:23;1.90;;;1.67;;
7719;SDS011;3902;49.474;8.616;2023-05-07T10:23:55;3.73;;;2.17;;
7719;SDS011;3902;49.474;8.616;2023-05-07T10:26:30;1.97;;;1.70;;
7719;SDS011;3902;49.474;8.616;2023-05-07T10:29:02;2.37;;;1.90;;
7719;SDS011;3902;49.474;8.616;2023-05-07T10:34:21;2.33;;;2.13;;
7719;SDS011;3902;49.474;8.616;2023-05-07T10:36:51;1.90;;;1.70;;
7719;SDS011;3902;49.474;8.616;2023-05-07T10:39:19;1.90;;;1.80;;
7719;SDS011;3902;49.474;8.616;2023-05-07T10:41:46;1.90;;;1.70;;
7719;SDS011;3902;49.474;8.616;2023-05-07T10:44:24;2.20;;;2.00;;
7719;SDS011;3902;49.474;8.616;2023-05-07T10:47:06;2.70;;;2.27;;
7719;SDS011;3902;49.474;8.616;2023-05-07T10:49:33;2.13;;;1.93;;
7719;SDS011;3902;49.474;8.616;2023-05-07T10:52:14;1.80;;;1.70;;
7719;SDS011;3902;49.474;8.616;2023-05-07T10:54:42;2.70;;;2.13;;
7719;SDS011;3902;49.474;8.616;2023-05-07T11:05:24;2.20;;;2.00;;
7719;SDS011;3902;49.474;8.616;2023-05-07T11:07:53;2.40;;;2.20;;
7719;SDS011;3902;49.474;8.616;2023-05-07T11:10:20;2.10;;;1.80;;
7719;SDS011;3902;49.474;8.616;2023-05-07T11:12:46;2.40;;;1.87;;
7719;SDS011;3902;49.474;8.616;2023-05-07T11:15:13;1.90;;;1.77;;
7719;SDS011;3902;49.474;8.616;2023-05-07T11:17:54;1.80;;;1.70;;
7719;SDS011;3902;49.474;8.616;2023-05-07T11:20:43;1.80;;;1.70;;
7719;SDS011;3902;49.474;8.616;2023-05-07T11:26:00;2.03;;;1.83;;
7719;SDS011;3902;49.474;8.616;2023-05-07T11:28:32;1.50;;;1.40;;
7719;SDS011;3902;49.474;8.616;2023-05-07T11:31:04;2.97;;;1.90;;
7719;SDS011;3902;49.474;8.616;2023-05-07T11:33:30;2.10;;;1.50;;
7719;SDS011;3902;49.474;8.616;2023-05-07T11:35:57;1.70;;;1.60;;
7719;SDS011;3902;49.474;8.616;2023-05-07T11:38:23;2.23;;;1.60;;
7719;SDS011;3902;49.474;8.616;2023-05-07T11:40:53;2.40;;;1.80;;
7719;SDS011;3902;49.474;8.616;2023-05-07T11:43:23;3.17;;;1.60;;
7719;SDS011;3902;49.474;8.616;2023-05-07T11:45:49;1.53;;;1.43;;
7719;SDS011;3902;49.474;8.616;2023-05-07T11:48:15;3.80;;;1.90;;
7719;SDS011;3902;49.474;8.616;2023-05-07T11:53:16;4.20;;;2.30;;
7719;SDS011;3902;49.474;8.616;2023-05-07T11:55:42;1.90;;;1.80;;
7719;SDS011;3902;49.474;8.616;2023-05-07T11:58:10;1.80;;;1.70;;
7719;SDS011;3902;49.474;8.616;2023-05-07T12:00:37;1.70;;;1.60;;
7719;SDS011;3902;49.474;8.616;2023-05-07T12:03:05;1.70;;;1.60;;
7719;SDS011;3902;49.474;8.616;2023-05-07T12:05:31;1.50;;;1.40;;
7719;SDS011;3902;49.474;8.616;2023-05-07T12:07:59;1.60;;;1.50;;
7719;SDS011;3902;49.474;8.616;2023-05-07T12:10:25;1.77;;;1.67;;
7719;SDS011;3902;49.474;8.616;2023-05-07T12:12:50;1.80;;;1.70;;
7719;SDS011;3902;49.474;8.616;2023-05-07T12:15:16;1.60;;;1.50;;
7719;SDS011;3902;49.474;8.616;2023-05-07T12:17:42;2.57;;;1.70;;
7719;SDS011;3902;49.474;8.616;2023-05-07T12:20:08;1.63;;;1.50;;
7719;SDS011;3902;49.474;8.616;2023-05-07T12:22:35;2.00;;;1.80;;
7719;SDS011;3902;49.474;8.616;2023-05-07T12:25:01;1.50;;;1.40;;
7719;SDS011;3902;49.474;8.616;2023-05-07T12:27:27;1.77;;;1.67;;
7719;SDS011;3902;49.474;8.616;2023-05-07T12:29:53;1.77;;;1.60;;
7719;SDS011;3902;49.474;8.616;2023-05-07T12:32:19;2.60;;;1.60;;
7719;SDS011;3902;49.474;8.616;2023-05-07T12:34:46;1.60;;;1.50;;
7719;SDS011;3902;49.474;8.616;2023-05-07T12:37:14;2.60;;;1.90;;
7719;SDS011;3902;49.474;8.616;2023-05-07T12:39:47;1.70;;;1.60;;
7719;SDS011;3902;49.474;8.616;2023-05-07T12:42:16;2.13;;;1.70;;
7719;SDS011;3902;49.474;8.616;2023-05-07T12:44:45;1.50;;;1.40;;
7719;SDS011;3902;49.474;8.616;2023-05-07T12:47:11;2.37;;;2.03;;
7719;SDS011;3902;49.474;8.616;2023-05-07T12:49:37;1.70;;;1.60;;
7719;SDS011;3902;49.474;8.616;2023-05-07T12:52:03;1.73;;;1.47;;
7719;SDS011;3902;49.474;8.616;2023-05-07T12:54:33;3.20;;;1.50;;
7719;SDS011;3902;49.474;8.616;2023-05-07T12:57:02;3.70;;;1.87;;
7719;SDS011;3902;49.474;8.616;2023-05-07T12:59:33;1.80;;;1.70;;
7719;SDS011;3902;49.474;8.616;2023-05-07T13:02:00;3.10;;;1.70;;
7719;SDS011;3902;49.474;8.616;2023-05-07T13:04:25;1.97;;;1.87;;
7719;SDS011;3902;49.474;8.616;2023-05-07T13:06:51;1.80;;;1.70;;
7719;SDS011;3902;49.474;8.616;2023-05-07T13:09:16;1.43;;;1.33;;
7719;SDS011;3902;49.474;8.616;2023-05-07T13:11:42;1.70;;;1.50;;
7719;SDS011;3902;49.474;8.616;2023-05-07T13:14:07;1.53;;;1.40;;
7719;SDS011;3902;49.474;8.616;2023-05-07T13:16:33;1.60;;;1.50;;
7719;SDS011;3902;49.474;8.616;2023-05-07T13:18:58;1.50;;;1.40;;
7719;SDS011;3902;49.474;8.616;2023-05-07T13:21:24;1.73;;;1.63;;
7719;SDS011;3902;49.474;8.616;2023-05-07T13:23:50;1.80;;;1.70;;
7719;SDS011;3902;49.474;8.616;2023-05-07T13:26:15;2.00;;;1.70;;
7719;SDS011;3902;49.474;8.616;2023-05-07T13:28:41;1.67;;;1.57;;
7719;SDS011;3902;49.474;8.616;2023-05-07T13:31:06;2.03;;;1.63;;
7719;SDS011;3902;49.474;8.616;2023-05-07T13:33:32;1.63;;;1.50;;
7719;SDS011;3902;49.474;8.616;2023-05-07T13:35:57;2.07;;;1.50;;
7719;SDS011;3902;49.474;8.616;2023-05-07T13:38:25;1.83;;;1.67;;
7719;SDS011;3902;49.474;8.616;2023-05-07T13:40:51;1.93;;;1.83;;
7719;SDS011;3902;49.474;8.616;2023-05-07T13:43:16;1.70;;;1.60;;
7719;SDS011;3902;49.474;8.616;2023-05-07T13:45:43;2.13;;;1.40;;
7719;SDS011;3902;49.474;8.616;2023-05-07T13:48:09;2.23;;;1.90;;
7719;SDS011;3902;49.474;8.616;2023-05-07T13:50:35;2.07;;;1.80;;
7719;SDS011;3902;49.474;8.616;2023-05-07T13:53:00;1.90;;;1.70;;
7719;SDS011;3902;49.474;8.616;2023-05-07T13:55:27;2.43;;;2.23;;
7719;SDS011;3902;49.474;8.616;2023-05-07T13:58:00;3.20;;;2.30;;
7719;SDS011;3902;49.474;8.616;2023-05-07T14:00:28;3.00;;;2.37;;
7719;SDS011;3902;49.474;8.616;2023-05-07T14:02:54;2.13;;;1.93;;
7719;SDS011;3902;49.474;8.616;2023-05-07T14:05:20;2.83;;;2.57;;
7719;SDS011;3902;49.474;8.616;2023-05-07T14:07:48;2.50;;;2.20;;
7719;SDS011;3902;49.474;8.616;2023-05-07T14:10:16;4.57;;;2.03;;
7719;SDS011;3902;49.474;8.616;2023-05-07T14:12:43;3.77;;;1.80;;
7719;SDS011;3902;49.474;8.616;2023-05-07T14:15:09;2.63;;;2.10;;
7719;SDS011;3902;49.474;8.616;2023-05-07T14:17:35;2.03;;;1.70;;
7719;SDS011;3902;49.474;8.616;2023-05-07T14:20:01;1.90;;;1.70;;
7719;SDS011;3902;49.474;8.616;2023-05-07T14:22:26;2.80;;;2.03;;
7719;SDS011;3902;49.474;8.616;2023-05-07T14:24:52;2.23;;;1.80;;
7719;SDS011;3902;49.474;8.616;2023-05-07T14:27:17;5.60;;;1.97;;
7719;SDS011;3902;49.474;8.616;2023-05-07T14:29:43;2.33;;;1.70;;
7719;SDS011;3902;49.474;8.616;2023-05-07T14:32:10;6.70;;;2.30;;
7719;SDS011;3902;49.474;8.616;2023-05-07T14:34:36;4.20;;;2.20;;
7719;SDS011;3902;49.474;8.616;2023-05-07T14:37:01;3.30;;;1.87;;
7719;SDS011;3902;49.474;8.616;2023-05-07T14:39:27;3.00;;;1.63;;
7719;SDS011;3902;49.474;8.616;2023-05-07T14:41:52;7.70;;;2.60;;
7719;SDS011;3902;49.474;8.616;2023-05-07T14:44:19;6.00;;;3.00;;
7719;SDS011;3902;49.474;8.616;2023-05-07T14:46:45;5.53;;;2.47;;
7719;SDS011;3902;49.474;8.616;2023-05-07T14:49:11;7.17;;;2.27;;
7719;SDS011;3902;49.474;8.616;2023-05-07T14:51:41;2.40;;;2.10;;
7719;SDS011;3902;49.474;8.616;2023-05-07T14:54:08;3.33;;;2.30;;
7719;SDS011;3902;49.474;8.616;2023-05-07T14:56:34;4.37;;;2.20;;
7719;SDS011;3902;49.474;8.616;2023-05-07T14:59:00;2.30;;;2.03;;
7719;SDS011;3902;49.474;8.616;2023-05-07T15:01:27;3.10;;;1.90;;
7719;SDS011;3902;49.474;8.616;2023-05-07T15:03:53;2.80;;;1.97;;
7719;SDS011;3902;49.474;8.616;2023-05-07T15:06:19;4.57;;;2.67;;
7719;SDS011;3902;49.474;8.616;2023-05-07T15:08:44;4.60;;;2.33;;
7719;SDS011;3902;49.474;8.616;2023-05-07T15:11:10;4.70;;;2.27;;
7719;SDS011;3902;49.474;8.616;2023-05-07T15:13:36;3.67;;;2.00;;
7719;SDS011;3902;49.474;8.616;2023-05-07T15:16:01;4.47;;;2.00;;
7719;SDS011;3902;49.474;8.616;2023-05-07T15:18:27;3.70;;;2.17;;
7719;SDS011;3902;49.474;8.616;2023-05-07T15:20:52;2.00;;;1.90;;
7719;SDS011;3902;49.474;8.616;2023-05-07T15:23:18;4.27;;;2.60;;
7719;SDS011;3902;49.474;8.616;2023-05-07T15:25:43;4.50;;;1.83;;
7719;SDS011;3902;49.474;8.616;2023-05-07T15:28:09;3.30;;;2.20;;